sensor_id;sensor_type;location;lat;lon;timestamp;P1;durP1;ratioP1;P2;durP2;ratioP2
39324;SDS011;25037;49.488;9.900;2022-09-14T00:01:47;1999.90;;;999.90;;
39324;SDS011;25037;49.488;9.900;2022-09-14T00:04:14;1999.90;;;999.90;;
39324;SDS011;25037;49.488;9.900;2022-09-14T00:06:41;1999.90;;;999.90;;
39324;SDS011;25037;49.488;9.900;2022-09-14T00:09:07;1999.90;;;999.90;;
39324;SDS011;25037;49.488;9.900;2022-09-14T00:11:43;1999.90;;;999.90;;
39324;SDS011;25037;49.488;9.900;2022-09-14T00:14:09;1999.90;;;999.90;;
39324;SDS011;25037;49.488;9.900;2022-09-14T00:16:36;1999.90;;;999.90;;
39324;SDS011;25037;49.488;9.900;2022-09-14T00:19:04;1999.90;;;999.90;;
39324;SDS011;25037;49.488;9.900;2022-09-14T00:21:39;1999.90;;;999.90;;
39324;SDS011;25037;49.488;9.900;2022-09-14T00:24:06;1999.90;;;999.90;;
39324;SDS011;25037;49.488;9.900;2022-09-14T00:26:32;1999.90;;;999.90;;
39324;SDS011;25037;49.488;9.900;2022-09-14T00:28:58;1999.90;;;999.90;;
39324;SDS011;25037;49.488;9.900;2022-09-14T00:31:29;1999.90;;;999.90;;
39324;SDS011;25037;49.488;9.900;2022-09-14T00:33:56;1999.90;;;999.90;;
39324;SDS011;25037;49.488;9.900;2022-09-14T00:36:23;1999.90;;;999.90;;
39324;SDS011;25037;49.488;9.900;2022-09-14T00:38:50;1805.95;;;670.50;;
39324;SDS011;25037;49.488;9.900;2022-09-14T00:41:19;1999.90;;;999.90;;
39324;SDS011;25037;49.488;9.900;2022-09-14T00:46:21;1999.90;;;883.95;;
39324;SDS011;25037;49.488;9.900;2022-09-14T00:48:47;1999.90;;;999.90;;
39324;SDS011;25037;49.488;9.900;2022-09-14T00:51:14;1999.90;;;900.63;;
39324;SDS011;25037;49.488;9.900;2022-09-14T00:53:42;1999.90;;;911.40;;
39324;SDS011;25037;49.488;9.900;2022-09-14T00:56:08;1999.90;;;999.90;;
39324;SDS011;25037;49.488;9.900;2022-09-14T00:58:33;1999.90;;;923.13;;
39324;SDS011;25037;49.488;9.900;2022-09-14T01:00:59;1999.90;;;806.30;;
39324;SDS011;25037;49.488;9.900;2022-09-14T01:03:26;1999.90;;;871.65;;
39324;SDS011;25037;49.488;9.900;2022-09-14T01:06:00;1999.90;;;999.90;;
39324;SDS011;25037;49.488;9.900;2022-09-14T01:16:38;1999.90;;;962.80;;
39324;SDS011;25037;49.488;9.900;2022-09-14T01:19:25;1999.90;;;887.78;;
39324;SDS011;25037;49.488;9.900;2022-09-14T01:22:11;1999.90;;;999.90;;
39324;SDS011;25037;49.488;9.900;2022-09-14T01:24:46;1999.90;;;963.50;;
39324;SDS011;25037;49.488;9.900;2022-09-14T01:27:20;1999.90;;;814.17;;
39324;SDS011;25037;49.488;9.900;2022-09-14T01:29:58;1999.90;;;732.28;;
39324;SDS011;25037;49.488;9.900;2022-09-14T01:32:34;1999.90;;;925.97;;
39324;SDS011;25037;49.488;9.900;2022-09-14T01:35:04;1999.90;;;987.75;;
39324;SDS011;25037;49.488;9.900;2022-09-14T01:37:56;1999.90;;;927.40;;
39324;SDS011;25037;49.488;9.900;2022-09-14T01:40:43;1999.90;;;999.90;;
39324;SDS011;25037;49.488;9.900;2022-09-14T01:46:17;1999.90;;;953.38;;
39324;SDS011;25037;49.488;9.900;2022-09-14T01:48:55;1999.90;;;999.90;;
39324;SDS011;25037;49.488;9.900;2022-09-14T01:51:30;1999.90;;;999.90;;
39324;SDS011;25037;49.488;9.900;2022-09-14T01:54:06;1999.90;;;999.90;;
39324;SDS011;25037;49.488;9.900;2022-09-14T01:59:28;1965.93;;;999.90;;
39324;SDS011;25037;49.488;9.900;2022-09-14T02:02:02;1999.90;;;999.90;;
39324;SDS011;25037;49.488;9.900;2022-09-14T02:07:18;1994.80;;;999.90;;
39324;SDS011;25037;49.488;9.900;2022-09-14T02:09:45;1963.13;;;999.90;;
39324;SDS011;25037;49.488;9.900;2022-09-14T02:12:11;1357.65;;;999.90;;
39324;SDS011;25037;49.488;9.900;2022-09-14T02:14:38;1184.15;;;993.85;;
39324;SDS011;25037;49.488;9.900;2022-09-14T02:17:03;1274.53;;;996.70;;
39324;SDS011;25037;49.488;9.900;2022-09-14T02:19:31;1539.90;;;999.90;;
39324;SDS011;25037;49.488;9.900;2022-09-14T02:22:01;1206.05;;;979.15;;
39324;SDS011;25037;49.488;9.900;2022-09-14T02:24:27;1109.70;;;983.78;;
39324;SDS011;25037;49.488;9.900;2022-09-14T02:26:53;1125.00;;;994.92;;
39324;SDS011;25037;49.488;9.900;2022-09-14T02:29:20;1137.78;;;999.90;;
39324;SDS011;25037;49.488;9.900;2022-09-14T02:32:20;1175.68;;;999.90;;
39324;SDS011;25037;49.488;9.900;2022-09-14T02:48:54;852.95;;;776.72;;
39324;SDS011;25037;49.488;9.900;2022-09-14T02:54:10;862.75;;;787.55;;
39324;SDS011;25037;49.488;9.900;2022-09-14T02:56:41;873.42;;;792.25;;
39324;SDS011;25037;49.488;9.900;2022-09-14T02:59:08;893.97;;;813.40;;
39324;SDS011;25037;49.488;9.900;2022-09-14T03:01:34;911.88;;;818.85;;
39324;SDS011;25037;49.488;9.900;2022-09-14T03:03:59;886.85;;;793.90;;
39324;SDS011;25037;49.488;9.900;2022-09-14T03:06:25;1203.55;;;887.78;;
39324;SDS011;25037;49.488;9.900;2022-09-14T03:08:51;1659.75;;;963.67;;
39324;SDS011;25037;49.488;9.900;2022-09-14T03:11:16;1770.72;;;992.83;;
39324;SDS011;25037;49.488;9.900;2022-09-14T03:13:42;1999.90;;;999.90;;
39324;SDS011;25037;49.488;9.900;2022-09-14T03:16:10;1999.90;;;999.90;;
39324;SDS011;25037;49.488;9.900;2022-09-14T03:18:38;1999.90;;;999.90;;
39324;SDS011;25037;49.488;9.900;2022-09-14T03:21:05;1999.90;;;999.90;;
39324;SDS011;25037;49.488;9.900;2022-09-14T03:23:36;1999.90;;;999.90;;
39324;SDS011;25037;49.488;9.900;2022-09-14T03:26:05;1999.90;;;999.90;;
39324;SDS011;25037;49.488;9.900;2022-09-14T03:28:35;1999.90;;;999.90;;
39324;SDS011;25037;49.488;9.900;2022-09-14T03:31:02;1999.90;;;999.90;;
39324;SDS011;25037;49.488;9.900;2022-09-14T03:33:29;1999.90;;;999.90;;
39324;SDS011;25037;49.488;9.900;2022-09-14T03:35:55;1999.90;;;629.50;;
39324;SDS011;25037;49.488;9.900;2022-09-14T03:38:21;1999.90;;;999.90;;
39324;SDS011;25037;49.488;9.900;2022-09-14T03:40:48;1793.97;;;827.00;;
39324;SDS011;25037;49.488;9.900;2022-09-14T03:43:13;1999.90;;;999.90;;
39324;SDS011;25037;49.488;9.900;2022-09-14T03:45:39;1999.90;;;999.90;;
39324;SDS011;25037;49.488;9.900;2022-09-14T03:48:06;1170.65;;;556.90;;
39324;SDS011;25037;49.488;9.900;2022-09-14T03:50:32;1999.90;;;999.90;;
39324;SDS011;25037;49.488;9.900;2022-09-14T03:52:57;1999.90;;;999.90;;
39324;SDS011;25037;49.488;9.900;2022-09-14T03:55:23;1999.90;;;999.90;;
39324;SDS011;25037;49.488;9.900;2022-09-14T03:57:53;1999.90;;;999.90;;
39324;SDS011;25037;49.488;9.900;2022-09-14T04:00:19;1999.90;;;999.90;;
39324;SDS011;25037;49.488;9.900;2022-09-14T04:02:45;1999.90;;;999.90;;
39324;SDS011;25037;49.488;9.900;2022-09-14T04:05:11;1999.90;;;999.90;;
39324;SDS011;25037;49.488;9.900;2022-09-14T04:07:36;1999.90;;;999.90;;
39324;SDS011;25037;49.488;9.900;2022-09-14T04:10:03;1999.90;;;999.90;;
39324;SDS011;25037;49.488;9.900;2022-09-14T04:12:34;1999.90;;;999.90;;
39324;SDS011;25037;49.488;9.900;2022-09-14T04:15:00;1999.90;;;999.90;;
39324;SDS011;25037;49.488;9.900;2022-09-14T04:17:26;1999.90;;;999.90;;
39324;SDS011;25037;49.488;9.900;2022-09-14T04:19:52;1999.90;;;999.90;;
39324;SDS011;25037;49.488;9.900;2022-09-14T04:22:17;1999.90;;;999.90;;
39324;SDS011;25037;49.488;9.900;2022-09-14T04:24:43;1999.90;;;999.90;;
39324;SDS011;25037;49.488;9.900;2022-09-14T04:27:08;1999.90;;;999.90;;
39324;SDS011;25037;49.488;9.900;2022-09-14T04:29:34;1999.90;;;999.90;;
39324;SDS011;25037;49.488;9.900;2022-09-14T04:31:59;1999.90;;;999.90;;
39324;SDS011;25037;49.488;9.900;2022-09-14T04:34:25;1999.90;;;999.90;;
39324;SDS011;25037;49.488;9.900;2022-09-14T04:36:51;1999.90;;;999.90;;
39324;SDS011;25037;49.488;9.900;2022-09-14T04:39:16;1999.90;;;999.90;;
39324;SDS011;25037;49.488;9.900;2022-09-14T04:41:43;1999.90;;;999.90;;
39324;SDS011;25037;49.488;9.900;2022-09-14T04:44:09;1999.90;;;999.90;;
39324;SDS011;25037;49.488;9.900;2022-09-14T04:46:35;1999.90;;;999.90;;
39324;SDS011;25037;49.488;9.900;2022-09-14T04:49:03;1999.90;;;999.90;;
39324;SDS011;25037;49.488;9.900;2022-09-14T04:51:29;1999.90;;;999.90;;
39324;SDS011;25037;49.488;9.900;2022-09-14T04:53:57;1999.90;;;999.90;;
39324;SDS011;25037;49.488;9.900;2022-09-14T04:56:24;1999.90;;;999.90;;
39324;SDS011;25037;49.488;9.900;2022-09-14T04:58:55;1999.90;;;999.90;;
39324;SDS011;25037;49.488;9.900;2022-09-14T05:01:23;1999.90;;;999.90;;
39324;SDS011;25037;49.488;9.900;2022-09-14T05:03:50;1999.90;;;999.90;;
39324;SDS011;25037;49.488;9.900;2022-09-14T05:06:18;1999.90;;;999.90;;
39324;SDS011;25037;49.488;9.900;2022-09-14T05:08:45;1999.90;;;999.90;;
39324;SDS011;25037;49.488;9.900;2022-09-14T05:11:12;1999.90;;;999.90;;
39324;SDS011;25037;49.488;9.900;2022-09-14T05:13:43;1999.90;;;999.90;;
39324;SDS011;25037;49.488;9.900;2022-09-14T05:16:10;1999.90;;;999.90;;
39324;SDS011;25037;49.488;9.900;2022-09-14T05:18:41;1999.90;;;999.90;;
39324;SDS011;25037;49.488;9.900;2022-09-14T05:21:09;1999.90;;;999.90;;
39324;SDS011;25037;49.488;9.900;2022-09-14T05:23:36;1999.90;;;999.90;;
39324;SDS011;25037;49.488;9.900;2022-09-14T05:26:03;1999.90;;;999.90;;
39324;SDS011;25037;49.488;9.900;2022-09-14T05:28:29;1999.90;;;999.90;;
39324;SDS011;25037;49.488;9.900;2022-09-14T05:30:55;1999.90;;;999.90;;
39324;SDS011;25037;49.488;9.900;2022-09-14T05:33:21;1999.90;;;999.90;;
39324;SDS011;25037;49.488;9.900;2022-09-14T05:35:47;1999.90;;;999.90;;
39324;SDS011;25037;49.488;9.900;2022-09-14T05:38:13;1999.90;;;999.90;;
39324;SDS011;25037;49.488;9.900;2022-09-14T05:40:39;1999.90;;;999.90;;
39324;SDS011;25037;49.488;9.900;2022-09-14T05:43:05;1999.90;;;999.90;;
39324;SDS011;25037;49.488;9.900;2022-09-14T05:45:32;1999.90;;;999.90;;
39324;SDS011;25037;49.488;9.900;2022-09-14T05:48:01;1999.90;;;999.90;;
39324;SDS011;25037;49.488;9.900;2022-09-14T05:50:31;1999.90;;;999.90;;
39324;SDS011;25037;49.488;9.900;2022-09-14T05:52:58;1999.90;;;999.90;;
39324;SDS011;25037;49.488;9.900;2022-09-14T05:55:24;1999.90;;;999.90;;
39324;SDS011;25037;49.488;9.900;2022-09-14T05:57:50;1999.90;;;999.90;;
39324;SDS011;25037;49.488;9.900;2022-09-14T06:00:16;1999.90;;;999.90;;
39324;SDS011;25037;49.488;9.900;2022-09-14T06:02:49;1999.90;;;999.90;;
39324;SDS011;25037;49.488;9.900;2022-09-14T06:05:16;1999.90;;;999.90;;
39324;SDS011;25037;49.488;9.900;2022-09-14T06:07:42;1999.90;;;999.90;;
39324;SDS011;25037;49.488;9.900;2022-09-14T06:10:08;1999.90;;;999.90;;
39324;SDS011;25037;49.488;9.900;2022-09-14T06:12:35;1999.90;;;999.90;;
39324;SDS011;25037;49.488;9.900;2022-09-14T06:15:00;1999.90;;;999.90;;
39324;SDS011;25037;49.488;9.900;2022-09-14T06:17:28;1999.90;;;999.90;;
39324;SDS011;25037;49.488;9.900;2022-09-14T06:19:54;1999.90;;;999.90;;
39324;SDS011;25037;49.488;9.900;2022-09-14T06:22:20;1999.90;;;999.90;;
39324;SDS011;25037;49.488;9.900;2022-09-14T06:24:45;1999.90;;;999.90;;
39324;SDS011;25037;49.488;9.900;2022-09-14T06:27:11;1544.00;;;959.67;;
39324;SDS011;25037;49.488;9.900;2022-09-14T06:29:37;1471.85;;;999.90;;
39324;SDS011;25037;49.488;9.900;2022-09-14T06:32:02;1451.00;;;999.90;;
39324;SDS011;25037;49.488;9.900;2022-09-14T06:34:28;1532.63;;;999.90;;
39324;SDS011;25037;49.488;9.900;2022-09-14T06:36:54;1520.10;;;999.90;;
39324;SDS011;25037;49.488;9.900;2022-09-14T06:39:20;1654.60;;;999.90;;
39324;SDS011;25037;49.488;9.900;2022-09-14T06:41:45;1638.75;;;999.90;;
39324;SDS011;25037;49.488;9.900;2022-09-14T06:44:11;1669.88;;;999.90;;
39324;SDS011;25037;49.488;9.900;2022-09-14T06:46:36;1599.07;;;999.90;;
39324;SDS011;25037;49.488;9.900;2022-09-14T06:49:10;1622.97;;;999.90;;
39324;SDS011;25037;49.488;9.900;2022-09-14T06:51:38;1523.53;;;999.90;;
39324;SDS011;25037;49.488;9.900;2022-09-14T06:54:05;1570.72;;;999.90;;
39324;SDS011;25037;49.488;9.900;2022-09-14T06:56:34;1654.47;;;999.90;;
39324;SDS011;25037;49.488;9.900;2022-09-14T06:59:00;1668.03;;;999.90;;
39324;SDS011;25037;49.488;9.900;2022-09-14T07:01:27;1642.65;;;999.90;;
39324;SDS011;25037;49.488;9.900;2022-09-14T07:03:53;1626.38;;;999.90;;
39324;SDS011;25037;49.488;9.900;2022-09-14T07:06:20;1892.13;;;999.90;;
39324;SDS011;25037;49.488;9.900;2022-09-14T07:08:47;1668.85;;;999.90;;
39324;SDS011;25037;49.488;9.900;2022-09-14T07:11:14;1709.60;;;999.90;;
39324;SDS011;25037;49.488;9.900;2022-09-14T07:13:41;1739.78;;;999.90;;
39324;SDS011;25037;49.488;9.900;2022-09-14T07:16:07;1720.47;;;999.90;;
39324;SDS011;25037;49.488;9.900;2022-09-14T07:18:33;1709.78;;;999.90;;
39324;SDS011;25037;49.488;9.900;2022-09-14T07:21:10;1736.63;;;999.90;;
39324;SDS011;25037;49.488;9.900;2022-09-14T07:23:38;1748.22;;;999.90;;
39324;SDS011;25037;49.488;9.900;2022-09-14T07:26:10;1764.22;;;999.90;;
39324;SDS011;25037;49.488;9.900;2022-09-14T07:28:40;1763.20;;;999.90;;
39324;SDS011;25037;49.488;9.900;2022-09-14T07:31:15;1673.82;;;999.90;;
39324;SDS011;25037;49.488;9.900;2022-09-14T07:33:52;1706.78;;;999.90;;
39324;SDS011;25037;49.488;9.900;2022-09-14T07:36:19;1772.07;;;999.90;;
39324;SDS011;25037;49.488;9.900;2022-09-14T07:38:46;1639.47;;;999.90;;
39324;SDS011;25037;49.488;9.900;2022-09-14T07:41:12;1744.32;;;999.90;;
39324;SDS011;25037;49.488;9.900;2022-09-14T07:43:38;1600.40;;;999.90;;
39324;SDS011;25037;49.488;9.900;2022-09-14T07:46:04;1589.68;;;999.90;;
39324;SDS011;25037;49.488;9.900;2022-09-14T07:48:30;1693.68;;;999.90;;
39324;SDS011;25037;49.488;9.900;2022-09-14T07:51:00;1587.40;;;999.90;;
39324;SDS011;25037;49.488;9.900;2022-09-14T07:53:28;1702.90;;;999.90;;
39324;SDS011;25037;49.488;9.900;2022-09-14T07:55:56;1999.90;;;999.90;;
39324;SDS011;25037;49.488;9.900;2022-09-14T07:58:23;1812.22;;;999.90;;
39324;SDS011;25037;49.488;9.900;2022-09-14T08:00:48;1741.50;;;999.90;;
39324;SDS011;25037;49.488;9.900;2022-09-14T08:03:14;1748.82;;;999.90;;
39324;SDS011;25037;49.488;9.900;2022-09-14T08:05:39;1807.53;;;999.90;;
39324;SDS011;25037;49.488;9.900;2022-09-14T08:08:05;1670.72;;;999.90;;
39324;SDS011;25037;49.488;9.900;2022-09-14T08:10:33;1707.10;;;999.90;;
39324;SDS011;25037;49.488;9.900;2022-09-14T08:12:59;1730.10;;;999.90;;
39324;SDS011;25037;49.488;9.900;2022-09-14T08:15:24;1757.60;;;999.90;;
39324;SDS011;25037;49.488;9.900;2022-09-14T08:17:51;1791.93;;;999.90;;
39324;SDS011;25037;49.488;9.900;2022-09-14T08:20:16;1693.32;;;999.90;;
39324;SDS011;25037;49.488;9.900;2022-09-14T08:22:42;1479.53;;;999.90;;
39324;SDS011;25037;49.488;9.900;2022-09-14T08:25:08;1776.90;;;999.90;;
39324;SDS011;25037;49.488;9.900;2022-09-14T08:27:35;1778.30;;;999.90;;
39324;SDS011;25037;49.488;9.900;2022-09-14T08:30:00;1665.30;;;999.90;;
39324;SDS011;25037;49.488;9.900;2022-09-14T08:32:26;1624.40;;;999.90;;
39324;SDS011;25037;49.488;9.900;2022-09-14T08:34:51;1706.82;;;999.90;;
39324;SDS011;25037;49.488;9.900;2022-09-14T08:37:17;1522.20;;;999.90;;
39324;SDS011;25037;49.488;9.900;2022-09-14T08:39:42;1626.00;;;999.90;;
39324;SDS011;25037;49.488;9.900;2022-09-14T08:42:13;1583.60;;;999.90;;
39324;SDS011;25037;49.488;9.900;2022-09-14T08:44:44;1486.07;;;999.90;;
39324;SDS011;25037;49.488;9.900;2022-09-14T08:47:17;1701.65;;;999.90;;
39324;SDS011;25037;49.488;9.900;2022-09-14T08:52:43;1554.38;;;999.90;;
39324;SDS011;25037;49.488;9.900;2022-09-14T08:55:28;1648.45;;;999.90;;
39324;SDS011;25037;49.488;9.900;2022-09-14T08:58:29;1449.35;;;999.90;;
39324;SDS011;25037;49.488;9.900;2022-09-14T09:01:13;1377.75;;;999.90;;
39324;SDS011;25037;49.488;9.900;2022-09-14T09:03:51;1463.05;;;999.90;;
39324;SDS011;25037;49.488;9.900;2022-09-14T09:11:42;1324.18;;;999.90;;
39324;SDS011;25037;49.488;9.900;2022-09-14T09:16:56;1357.18;;;999.90;;
39324;SDS011;25037;49.488;9.900;2022-09-14T09:19:29;1385.18;;;999.90;;
39324;SDS011;25037;49.488;9.900;2022-09-14T09:21:58;1395.00;;;999.90;;
39324;SDS011;25037;49.488;9.900;2022-09-14T09:24:29;1301.25;;;999.90;;
39324;SDS011;25037;49.488;9.900;2022-09-14T09:27:10;1277.35;;;999.90;;
39324;SDS011;25037;49.488;9.900;2022-09-14T09:29:37;1296.07;;;999.90;;
39324;SDS011;25037;49.488;9.900;2022-09-14T09:32:03;1402.30;;;999.90;;
39324;SDS011;25037;49.488;9.900;2022-09-14T09:34:30;1496.53;;;999.90;;
39324;SDS011;25037;49.488;9.900;2022-09-14T09:36:58;1413.35;;;999.90;;
39324;SDS011;25037;49.488;9.900;2022-09-14T09:39:25;1427.15;;;999.90;;
39324;SDS011;25037;49.488;9.900;2022-09-14T09:42:04;1507.53;;;999.90;;
39324;SDS011;25037;49.488;9.900;2022-09-14T09:47:42;1440.38;;;999.90;;
39324;SDS011;25037;49.488;9.900;2022-09-14T09:52:48;1367.13;;;999.90;;
39324;SDS011;25037;49.488;9.900;2022-09-14T09:55:22;1336.30;;;999.90;;
39324;SDS011;25037;49.488;9.900;2022-09-14T09:57:52;1139.05;;;999.90;;
39324;SDS011;25037;49.488;9.900;2022-09-14T10:02:48;1178.50;;;999.90;;
39324;SDS011;25037;49.488;9.900;2022-09-14T10:07:56;1334.15;;;999.90;;
39324;SDS011;25037;49.488;9.900;2022-09-14T10:10:25;1163.85;;;999.90;;
39324;SDS011;25037;49.488;9.900;2022-09-14T10:13:02;1200.07;;;999.90;;
39324;SDS011;25037;49.488;9.900;2022-09-14T10:15:30;1213.72;;;999.90;;
39324;SDS011;25037;49.488;9.900;2022-09-14T10:20:42;1191.30;;;999.90;;
39324;SDS011;25037;49.488;9.900;2022-09-14T10:23:20;1183.55;;;999.90;;
39324;SDS011;25037;49.488;9.900;2022-09-14T10:26:33;1274.03;;;999.90;;
39324;SDS011;25037;49.488;9.900;2022-09-14T10:28:37;1239.20;;;999.90;;
39324;SDS011;25037;49.488;9.900;2022-09-14T10:31:06;1354.22;;;999.90;;
39324;SDS011;25037;49.488;9.900;2022-09-14T10:33:38;1183.72;;;999.90;;
39324;SDS011;25037;49.488;9.900;2022-09-14T10:47:20;1494.28;;;999.90;;
39324;SDS011;25037;49.488;9.900;2022-09-14T10:53:19;1129.18;;;999.90;;
39324;SDS011;25037;49.488;9.900;2022-09-14T10:55:52;1130.33;;;999.90;;
39324;SDS011;25037;49.488;9.900;2022-09-14T10:58:45;1085.43;;;989.20;;
39324;SDS011;25037;49.488;9.900;2022-09-14T11:04:41;1089.13;;;992.50;;
39324;SDS011;25037;49.488;9.900;2022-09-14T11:12:50;1092.82;;;993.53;;
39324;SDS011;25037;49.488;9.900;2022-09-14T11:15:21;1093.88;;;994.25;;
39324;SDS011;25037;49.488;9.900;2022-09-14T11:18:00;1168.13;;;999.90;;
39324;SDS011;25037;49.488;9.900;2022-09-14T11:23:34;1084.43;;;984.50;;
39324;SDS011;25037;49.488;9.900;2022-09-14T11:29:22;1084.47;;;984.13;;
39324;SDS011;25037;49.488;9.900;2022-09-14T11:35:41;1084.97;;;986.63;;
39324;SDS011;25037;49.488;9.900;2022-09-14T11:37:49;1105.28;;;999.10;;
39324;SDS011;25037;49.488;9.900;2022-09-14T11:40:34;1155.75;;;999.90;;
39324;SDS011;25037;49.488;9.900;2022-09-14T11:43:10;1131.05;;;999.90;;
39324;SDS011;25037;49.488;9.900;2022-09-14T11:45:44;1125.95;;;999.90;;
39324;SDS011;25037;49.488;9.900;2022-09-14T11:48:46;1186.25;;;999.90;;
39324;SDS011;25037;49.488;9.900;2022-09-14T11:51:22;1237.18;;;999.90;;
39324;SDS011;25037;49.488;9.900;2022-09-14T11:53:51;1289.38;;;999.90;;
39324;SDS011;25037;49.488;9.900;2022-09-14T11:56:19;1295.80;;;999.90;;
39324;SDS011;25037;49.488;9.900;2022-09-14T11:58:50;1361.13;;;999.90;;
39324;SDS011;25037;49.488;9.900;2022-09-14T12:04:03;1908.00;;;999.90;;
39324;SDS011;25037;49.488;9.900;2022-09-14T12:09:29;1657.95;;;999.90;;
39324;SDS011;25037;49.488;9.900;2022-09-14T12:11:48;1941.90;;;999.90;;
39324;SDS011;25037;49.488;9.900;2022-09-14T12:19:29;1892.43;;;999.90;;
39324;SDS011;25037;49.488;9.900;2022-09-14T12:21:56;1999.90;;;999.90;;
39324;SDS011;25037;49.488;9.900;2022-09-14T12:24:44;1999.90;;;999.90;;
39324;SDS011;25037;49.488;9.900;2022-09-14T12:27:20;1999.90;;;999.90;;
39324;SDS011;25037;49.488;9.900;2022-09-14T12:29:46;1999.90;;;999.90;;
39324;SDS011;25037;49.488;9.900;2022-09-14T12:32:23;1910.15;;;999.90;;
39324;SDS011;25037;49.488;9.900;2022-09-14T12:35:34;1999.90;;;999.90;;
39324;SDS011;25037;49.488;9.900;2022-09-14T12:37:54;1999.90;;;999.90;;
39324;SDS011;25037;49.488;9.900;2022-09-14T12:40:22;1915.47;;;999.90;;
39324;SDS011;25037;49.488;9.900;2022-09-14T12:43:09;1475.25;;;999.90;;
39324;SDS011;25037;49.488;9.900;2022-09-14T12:46:02;1519.95;;;999.90;;
39324;SDS011;25037;49.488;9.900;2022-09-14T12:59:09;1379.97;;;999.90;;
39324;SDS011;25037;49.488;9.900;2022-09-14T13:01:51;1621.65;;;999.90;;
39324;SDS011;25037;49.488;9.900;2022-09-14T13:04:28;1548.07;;;999.90;;
39324;SDS011;25037;49.488;9.900;2022-09-14T13:06:56;1665.82;;;999.90;;
39324;SDS011;25037;49.488;9.900;2022-09-14T13:09:26;1717.45;;;999.90;;
39324;SDS011;25037;49.488;9.900;2022-09-14T13:11:57;1531.93;;;999.90;;
39324;SDS011;25037;49.488;9.900;2022-09-14T13:14:46;1683.85;;;999.90;;
39324;SDS011;25037;49.488;9.900;2022-09-14T13:17:16;1827.68;;;999.90;;
39324;SDS011;25037;49.488;9.900;2022-09-14T13:19:41;1701.50;;;999.90;;
39324;SDS011;25037;49.488;9.900;2022-09-14T13:22:17;1428.97;;;999.90;;
39324;SDS011;25037;49.488;9.900;2022-09-14T13:24:45;1670.53;;;999.90;;
39324;SDS011;25037;49.488;9.900;2022-09-14T13:27:22;1502.32;;;999.90;;
39324;SDS011;25037;49.488;9.900;2022-09-14T13:30:01;1722.57;;;999.90;;
39324;SDS011;25037;49.488;9.900;2022-09-14T13:32:45;1912.45;;;999.90;;
39324;SDS011;25037;49.488;9.900;2022-09-14T13:35:35;1999.90;;;999.90;;
39324;SDS011;25037;49.488;9.900;2022-09-14T13:38:16;1999.90;;;999.90;;
39324;SDS011;25037;49.488;9.900;2022-09-14T13:40:47;1999.90;;;999.90;;
39324;SDS011;25037;49.488;9.900;2022-09-14T13:43:15;1999.90;;;999.90;;
39324;SDS011;25037;49.488;9.900;2022-09-14T13:45:41;1999.90;;;999.90;;
39324;SDS011;25037;49.488;9.900;2022-09-14T13:48:07;1999.90;;;999.90;;
39324;SDS011;25037;49.488;9.900;2022-09-14T13:50:33;1999.90;;;999.90;;
39324;SDS011;25037;49.488;9.900;2022-09-14T13:52:59;1999.90;;;999.90;;
39324;SDS011;25037;49.488;9.900;2022-09-14T13:55:39;1999.90;;;999.90;;
39324;SDS011;25037;49.488;9.900;2022-09-14T14:03:24;1999.90;;;999.90;;
39324;SDS011;25037;49.488;9.900;2022-09-14T14:05:50;1999.90;;;999.90;;
39324;SDS011;25037;49.488;9.900;2022-09-14T14:08:27;1999.90;;;999.90;;
39324;SDS011;25037;49.488;9.900;2022-09-14T14:10:53;1999.90;;;999.90;;
39324;SDS011;25037;49.488;9.900;2022-09-14T14:13:23;1999.90;;;999.90;;
39324;SDS011;25037;49.488;9.900;2022-09-14T14:15:59;1999.90;;;999.90;;
39324;SDS011;25037;49.488;9.900;2022-09-14T14:18:54;1999.90;;;999.90;;
39324;SDS011;25037;49.488;9.900;2022-09-14T14:23:46;1999.90;;;999.90;;
39324;SDS011;25037;49.488;9.900;2022-09-14T14:26:13;1999.90;;;999.90;;
39324;SDS011;25037;49.488;9.900;2022-09-14T14:28:43;1999.90;;;999.90;;
39324;SDS011;25037;49.488;9.900;2022-09-14T14:31:13;1895.57;;;999.90;;
39324;SDS011;25037;49.488;9.900;2022-09-14T14:33:43;1736.93;;;999.90;;
39324;SDS011;25037;49.488;9.900;2022-09-14T14:36:14;1840.03;;;999.90;;
39324;SDS011;25037;49.488;9.900;2022-09-14T14:38:40;1852.05;;;999.90;;
39324;SDS011;25037;49.488;9.900;2022-09-14T14:41:18;1877.72;;;999.90;;
39324;SDS011;25037;49.488;9.900;2022-09-14T14:43:46;1980.80;;;999.90;;
39324;SDS011;25037;49.488;9.900;2022-09-14T14:46:13;1916.18;;;999.90;;
39324;SDS011;25037;49.488;9.900;2022-09-14T14:48:40;1817.95;;;999.90;;
39324;SDS011;25037;49.488;9.900;2022-09-14T14:51:08;1780.38;;;999.90;;
39324;SDS011;25037;49.488;9.900;2022-09-14T14:53:38;1788.78;;;941.92;;
39324;SDS011;25037;49.488;9.900;2022-09-14T14:56:04;1999.90;;;999.90;;
39324;SDS011;25037;49.488;9.900;2022-09-14T14:58:29;1882.15;;;900.03;;
39324;SDS011;25037;49.488;9.900;2022-09-14T15:00:55;1990.32;;;999.90;;
39324;SDS011;25037;49.488;9.900;2022-09-14T15:03:21;1814.00;;;830.42;;
39324;SDS011;25037;49.488;9.900;2022-09-14T15:05:47;1999.90;;;999.90;;
39324;SDS011;25037;49.488;9.900;2022-09-14T15:08:14;1999.90;;;999.90;;
39324;SDS011;25037;49.488;9.900;2022-09-14T15:10:41;1999.90;;;999.90;;
39324;SDS011;25037;49.488;9.900;2022-09-14T15:13:08;1999.90;;;999.90;;
39324;SDS011;25037;49.488;9.900;2022-09-14T15:15:35;1930.82;;;987.10;;
39324;SDS011;25037;49.488;9.900;2022-09-14T15:18:04;1999.90;;;999.90;;
39324;SDS011;25037;49.488;9.900;2022-09-14T15:20:30;1999.90;;;999.90;;
39324;SDS011;25037;49.488;9.900;2022-09-14T15:22:56;1562.57;;;779.55;;
39324;SDS011;25037;49.488;9.900;2022-09-14T15:25:21;1999.90;;;999.90;;
39324;SDS011;25037;49.488;9.900;2022-09-14T15:27:47;1801.07;;;977.90;;
39324;SDS011;25037;49.488;9.900;2022-09-14T15:30:12;1999.90;;;999.90;;
39324;SDS011;25037;49.488;9.900;2022-09-14T15:32:38;1999.90;;;999.90;;
39324;SDS011;25037;49.488;9.900;2022-09-14T15:35:05;1999.90;;;999.90;;
39324;SDS011;25037;49.488;9.900;2022-09-14T15:37:32;1999.90;;;999.90;;
39324;SDS011;25037;49.488;9.900;2022-09-14T15:39:58;1999.90;;;999.90;;
39324;SDS011;25037;49.488;9.900;2022-09-14T15:42:23;1999.90;;;999.90;;
39324;SDS011;25037;49.488;9.900;2022-09-14T15:44:49;1999.90;;;999.90;;
39324;SDS011;25037;49.488;9.900;2022-09-14T15:47:15;1610.22;;;806.88;;
39324;SDS011;25037;49.488;9.900;2022-09-14T15:49:41;1999.90;;;999.90;;
39324;SDS011;25037;49.488;9.900;2022-09-14T15:52:07;1999.90;;;999.90;;
39324;SDS011;25037;49.488;9.900;2022-09-14T15:54:34;1999.90;;;999.90;;
39324;SDS011;25037;49.488;9.900;2022-09-14T15:57:05;1999.90;;;999.90;;
39324;SDS011;25037;49.488;9.900;2022-09-14T15:59:32;1999.90;;;999.90;;
39324;SDS011;25037;49.488;9.900;2022-09-14T16:01:58;1999.90;;;999.90;;